sensor_id;sensor_type;location;lat;lon;timestamp;P1;durP1;ratioP1;P2;durP2;ratioP2
56653;SDS011;45096;52.302;4.634;2023-12-04T00:00:33;11.97;;;8.47;;
56653;SDS011;45096;52.302;4.634;2023-12-04T00:02:58;12.13;;;7.43;;
56653;SDS011;45096;52.302;4.634;2023-12-04T00:05:24;13.53;;;7.80;;
56653;SDS011;45096;52.302;4.634;2023-12-04T00:07:49;12.33;;;7.53;;
56653;SDS011;45096;52.302;4.634;2023-12-04T00:10:14;10.93;;;6.60;;
56653;SDS011;45096;52.302;4.634;2023-12-04T00:12:41;10.50;;;6.90;;
56653;SDS011;45096;52.302;4.634;2023-12-04T00:15:06;11.00;;;6.63;;
56653;SDS011;45096;52.302;4.634;2023-12-04T00:17:32;9.53;;;6.93;;
56653;SDS011;45096;52.302;4.634;2023-12-04T00:19:57;11.43;;;7.37;;
56653;SDS011;45096;52.302;4.634;2023-12-04T00:22:22;11.80;;;8.37;;
56653;SDS011;45096;52.302;4.634;2023-12-04T00:24:48;12.97;;;7.23;;
56653;SDS011;45096;52.302;4.634;2023-12-04T00:27:13;13.00;;;7.73;;
56653;SDS011;45096;52.302;4.634;2023-12-04T00:29:39;10.77;;;6.80;;
56653;SDS011;45096;52.302;4.634;2023-12-04T00:32:05;10.70;;;7.00;;
56653;SDS011;45096;52.302;4.634;2023-12-04T00:34:30;10.33;;;7.60;;
56653;SDS011;45096;52.302;4.634;2023-12-04T00:36:55;10.03;;;7.13;;
56653;SDS011;45096;52.302;4.634;2023-12-04T00:39:20;13.77;;;7.50;;
56653;SDS011;45096;52.302;4.634;2023-12-04T00:41:46;13.00;;;8.27;;
56653;SDS011;45096;52.302;4.634;2023-12-04T00:44:11;12.77;;;8.23;;
56653;SDS011;45096;52.302;4.634;2023-12-04T00:46:37;12.23;;;7.63;;
56653;SDS011;45096;52.302;4.634;2023-12-04T00:49:03;9.37;;;6.33;;
56653;SDS011;45096;52.302;4.634;2023-12-04T00:51:28;11.13;;;7.07;;
56653;SDS011;45096;52.302;4.634;2023-12-04T00:53:53;12.57;;;7.83;;
56653;SDS011;45096;52.302;4.634;2023-12-04T00:56:18;13.53;;;7.17;;
56653;SDS011;45096;52.302;4.634;2023-12-04T00:58:43;13.57;;;7.53;;
56653;SDS011;45096;52.302;4.634;2023-12-04T01:01:09;13.63;;;8.00;;
56653;SDS011;45096;52.302;4.634;2023-12-04T01:03:35;11.37;;;6.83;;
56653;SDS011;45096;52.302;4.634;2023-12-04T01:06:00;13.47;;;8.23;;
56653;SDS011;45096;52.302;4.634;2023-12-04T01:08:26;13.13;;;7.10;;
56653;SDS011;45096;52.302;4.634;2023-12-04T01:10:51;11.70;;;7.50;;
56653;SDS011;45096;52.302;4.634;2023-12-04T01:13:16;10.43;;;7.20;;
56653;SDS011;45096;52.302;4.634;2023-12-04T01:15:41;10.93;;;7.10;;
56653;SDS011;45096;52.302;4.634;2023-12-04T01:18:07;12.00;;;7.67;;
56653;SDS011;45096;52.302;4.634;2023-12-04T01:20:33;12.07;;;7.37;;
56653;SDS011;45096;52.302;4.634;2023-12-04T01:22:58;11.63;;;6.90;;
56653;SDS011;45096;52.302;4.634;2023-12-04T01:25:24;12.10;;;6.97;;
56653;SDS011;45096;52.302;4.634;2023-12-04T01:27:49;12.73;;;7.77;;
56653;SDS011;45096;52.302;4.634;2023-12-04T01:30:14;14.27;;;8.03;;
56653;SDS011;45096;52.302;4.634;2023-12-04T01:32:39;12.00;;;7.40;;
56653;SDS011;45096;52.302;4.634;2023-12-04T01:35:05;11.07;;;7.67;;
56653;SDS011;45096;52.302;4.634;2023-12-04T01:37:32;12.20;;;7.27;;
56653;SDS011;45096;52.302;4.634;2023-12-04T01:39:57;10.80;;;7.43;;
56653;SDS011;45096;52.302;4.634;2023-12-04T01:42:22;12.37;;;7.97;;
56653;SDS011;45096;52.302;4.634;2023-12-04T01:44:47;10.27;;;7.07;;
56653;SDS011;45096;52.302;4.634;2023-12-04T01:47:12;10.60;;;7.53;;
56653;SDS011;45096;52.302;4.634;2023-12-04T01:49:38;9.57;;;6.70;;
56653;SDS011;45096;52.302;4.634;2023-12-04T01:52:04;13.33;;;6.83;;
56653;SDS011;45096;52.302;4.634;2023-12-04T01:54:30;12.27;;;7.77;;
56653;SDS011;45096;52.302;4.634;2023-12-04T01:56:56;11.30;;;7.03;;
56653;SDS011;45096;52.302;4.634;2023-12-04T01:59:22;13.50;;;8.37;;
56653;SDS011;45096;52.302;4.634;2023-12-04T02:01:47;12.60;;;7.65;;
56653;SDS011;45096;52.302;4.634;2023-12-04T02:04:13;8.57;;;6.43;;
56653;SDS011;45096;52.302;4.634;2023-12-04T02:06:39;11.10;;;6.83;;
56653;SDS011;45096;52.302;4.634;2023-12-04T02:09:05;11.67;;;7.20;;
56653;SDS011;45096;52.302;4.634;2023-12-04T02:11:32;8.93;;;6.03;;
56653;SDS011;45096;52.302;4.634;2023-12-04T02:13:57;9.95;;;6.53;;
56653;SDS011;45096;52.302;4.634;2023-12-04T02:16:22;10.37;;;6.30;;
56653;SDS011;45096;52.302;4.634;2023-12-04T02:18:48;9.73;;;7.30;;
56653;SDS011;45096;52.302;4.634;2023-12-04T02:21:13;12.37;;;7.20;;
56653;SDS011;45096;52.302;4.634;2023-12-04T02:23:38;11.03;;;6.90;;
56653;SDS011;45096;52.302;4.634;2023-12-04T02:26:08;11.20;;;7.60;;
56653;SDS011;45096;52.302;4.634;2023-12-04T02:28:35;11.10;;;7.20;;
56653;SDS011;45096;52.302;4.634;2023-12-04T02:31:01;8.97;;;7.07;;
56653;SDS011;45096;52.302;4.634;2023-12-04T02:33:28;9.97;;;7.43;;
56653;SDS011;45096;52.302;4.634;2023-12-04T02:35:53;11.47;;;7.03;;
56653;SDS011;45096;52.302;4.634;2023-12-04T02:38:20;10.20;;;7.43;;
56653;SDS011;45096;52.302;4.634;2023-12-04T02:40:45;11.20;;;7.10;;
56653;SDS011;45096;52.302;4.634;2023-12-04T02:43:12;9.37;;;6.67;;
56653;SDS011;45096;52.302;4.634;2023-12-04T02:45:37;9.87;;;6.73;;
56653;SDS011;45096;52.302;4.634;2023-12-04T02:48:03;10.77;;;7.43;;
56653;SDS011;45096;52.302;4.634;2023-12-04T02:50:28;11.13;;;7.13;;
56653;SDS011;45096;52.302;4.634;2023-12-04T02:52:53;9.47;;;6.10;;
56653;SDS011;45096;52.302;4.634;2023-12-04T02:55:18;9.90;;;7.03;;
56653;SDS011;45096;52.302;4.634;2023-12-04T02:57:44;10.37;;;6.57;;
56653;SDS011;45096;52.302;4.634;2023-12-04T03:00:11;12.13;;;6.93;;
56653;SDS011;45096;52.302;4.634;2023-12-04T03:02:36;11.90;;;6.53;;
56653;SDS011;45096;52.302;4.634;2023-12-04T03:05:01;11.27;;;7.07;;
56653;SDS011;45096;52.302;4.634;2023-12-04T03:07:27;11.07;;;7.27;;
56653;SDS011;45096;52.302;4.634;2023-12-04T03:09:52;10.77;;;6.90;;
56653;SDS011;45096;52.302;4.634;2023-12-04T03:12:17;9.27;;;6.20;;
56653;SDS011;45096;52.302;4.634;2023-12-04T03:14:42;9.80;;;6.03;;
56653;SDS011;45096;52.302;4.634;2023-12-04T03:17:09;10.87;;;7.20;;
56653;SDS011;45096;52.302;4.634;2023-12-04T03:19:34;11.60;;;8.13;;
56653;SDS011;45096;52.302;4.634;2023-12-04T03:21:59;9.30;;;6.63;;
56653;SDS011;45096;52.302;4.634;2023-12-04T03:24:25;11.33;;;6.57;;
56653;SDS011;45096;52.302;4.634;2023-12-04T03:26:50;10.40;;;6.57;;
56653;SDS011;45096;52.302;4.634;2023-12-04T03:29:15;11.30;;;7.23;;
56653;SDS011;45096;52.302;4.634;2023-12-04T03:31:40;12.23;;;7.13;;
56653;SDS011;45096;52.302;4.634;2023-12-04T03:34:07;11.00;;;6.75;;
56653;SDS011;45096;52.302;4.634;2023-12-04T03:36:32;10.50;;;6.40;;
56653;SDS011;45096;52.302;4.634;2023-12-04T03:38:57;10.20;;;6.17;;
56653;SDS011;45096;52.302;4.634;2023-12-04T03:41:22;11.98;;;7.03;;
56653;SDS011;45096;52.302;4.634;2023-12-04T03:43:48;10.37;;;7.07;;
56653;SDS011;45096;52.302;4.634;2023-12-04T03:46:13;12.53;;;7.70;;
56653;SDS011;45096;52.302;4.634;2023-12-04T03:48:38;9.37;;;6.23;;
56653;SDS011;45096;52.302;4.634;2023-12-04T03:51:05;11.63;;;6.83;;
56653;SDS011;45096;52.302;4.634;2023-12-04T03:53:30;10.47;;;6.70;;
56653;SDS011;45096;52.302;4.634;2023-12-04T03:55:57;10.83;;;6.93;;
56653;SDS011;45096;52.302;4.634;2023-12-04T03:58:22;10.67;;;6.90;;
56653;SDS011;45096;52.302;4.634;2023-12-04T04:00:48;8.07;;;6.23;;
56653;SDS011;45096;52.302;4.634;2023-12-04T04:03:13;10.10;;;7.10;;
56653;SDS011;45096;52.302;4.634;2023-12-04T04:05:38;11.57;;;6.90;;
56653;SDS011;45096;52.302;4.634;2023-12-04T04:08:05;11.37;;;7.03;;
56653;SDS011;45096;52.302;4.634;2023-12-04T04:10:30;10.40;;;6.20;;
56653;SDS011;45096;52.302;4.634;2023-12-04T04:12:55;9.50;;;6.90;;
56653;SDS011;45096;52.302;4.634;2023-12-04T04:15:20;11.17;;;6.53;;
56653;SDS011;45096;52.302;4.634;2023-12-04T04:17:46;9.80;;;7.10;;
56653;SDS011;45096;52.302;4.634;2023-12-04T04:20:11;11.13;;;6.67;;
56653;SDS011;45096;52.302;4.634;2023-12-04T04:22:36;9.40;;;6.83;;
56653;SDS011;45096;52.302;4.634;2023-12-04T04:25:03;10.43;;;6.73;;
56653;SDS011;45096;52.302;4.634;2023-12-04T04:27:28;11.33;;;7.13;;
56653;SDS011;45096;52.302;4.634;2023-12-04T04:29:54;9.63;;;6.63;;
56653;SDS011;45096;52.302;4.634;2023-12-04T04:32:19;8.87;;;6.33;;
56653;SDS011;45096;52.302;4.634;2023-12-04T04:34:44;10.20;;;6.73;;
56653;SDS011;45096;52.302;4.634;2023-12-04T04:37:09;10.80;;;7.07;;
56653;SDS011;45096;52.302;4.634;2023-12-04T04:39:34;10.07;;;6.97;;
56653;SDS011;45096;52.302;4.634;2023-12-04T04:42:01;11.97;;;6.80;;
56653;SDS011;45096;52.302;4.634;2023-12-04T04:44:26;9.13;;;6.07;;
56653;SDS011;45096;52.302;4.634;2023-12-04T04:46:51;11.20;;;6.50;;
56653;SDS011;45096;52.302;4.634;2023-12-04T04:49:16;8.77;;;6.30;;
56653;SDS011;45096;52.302;4.634;2023-12-04T04:51:42;11.63;;;6.80;;
56653;SDS011;45096;52.302;4.634;2023-12-04T04:54:07;10.32;;;6.85;;
56653;SDS011;45096;52.302;4.634;2023-12-04T04:56:32;9.50;;;6.03;;
56653;SDS011;45096;52.302;4.634;2023-12-04T04:58:59;10.87;;;6.27;;
56653;SDS011;45096;52.302;4.634;2023-12-04T05:01:24;10.17;;;5.97;;
56653;SDS011;45096;52.302;4.634;2023-12-04T05:03:49;8.93;;;5.97;;
56653;SDS011;45096;52.302;4.634;2023-12-04T05:06:14;11.33;;;6.83;;
56653;SDS011;45096;52.302;4.634;2023-12-04T05:08:39;11.17;;;7.07;;
56653;SDS011;45096;52.302;4.634;2023-12-04T05:11:05;9.70;;;6.33;;
56653;SDS011;45096;52.302;4.634;2023-12-04T05:13:30;10.20;;;6.37;;
56653;SDS011;45096;52.302;4.634;2023-12-04T05:15:57;10.30;;;6.43;;
56653;SDS011;45096;52.302;4.634;2023-12-04T05:18:22;9.97;;;6.60;;
56653;SDS011;45096;52.302;4.634;2023-12-04T05:20:47;11.60;;;7.63;;
56653;SDS011;45096;52.302;4.634;2023-12-04T05:23:12;10.27;;;6.40;;
56653;SDS011;45096;52.302;4.634;2023-12-04T05:25:37;9.23;;;6.60;;
56653;SDS011;45096;52.302;4.634;2023-12-04T05:28:03;10.17;;;6.63;;
56653;SDS011;45096;52.302;4.634;2023-12-04T05:30:28;11.83;;;6.83;;
56653;SDS011;45096;52.302;4.634;2023-12-04T05:32:54;7.80;;;5.73;;
56653;SDS011;45096;52.302;4.634;2023-12-04T05:35:20;12.47;;;6.67;;
56653;SDS011;45096;52.302;4.634;2023-12-04T05:37:45;9.50;;;6.33;;
56653;SDS011;45096;52.302;4.634;2023-12-04T05:40:10;9.07;;;5.90;;
56653;SDS011;45096;52.302;4.634;2023-12-04T05:42:36;12.60;;;7.33;;
56653;SDS011;45096;52.302;4.634;2023-12-04T05:45:01;9.07;;;6.47;;
56653;SDS011;45096;52.302;4.634;2023-12-04T05:47:26;10.93;;;7.17;;
56653;SDS011;45096;52.302;4.634;2023-12-04T05:49:53;9.83;;;6.37;;
56653;SDS011;45096;52.302;4.634;2023-12-04T05:52:18;10.97;;;6.50;;
56653;SDS011;45096;52.302;4.634;2023-12-04T05:54:43;9.53;;;5.83;;
56653;SDS011;45096;52.302;4.634;2023-12-04T05:57:08;11.13;;;7.03;;
56653;SDS011;45096;52.302;4.634;2023-12-04T05:59:33;8.77;;;6.17;;
56653;SDS011;45096;52.302;4.634;2023-12-04T06:01:59;11.15;;;6.47;;
56653;SDS011;45096;52.302;4.634;2023-12-04T06:04:24;9.63;;;6.43;;
56653;SDS011;45096;52.302;4.634;2023-12-04T06:06:51;11.70;;;6.90;;
56653;SDS011;45096;52.302;4.634;2023-12-04T06:09:16;9.90;;;7.03;;
56653;SDS011;45096;52.302;4.634;2023-12-04T06:11:41;10.97;;;6.83;;
56653;SDS011;45096;52.302;4.634;2023-12-04T06:14:06;10.70;;;6.43;;
56653;SDS011;45096;52.302;4.634;2023-12-04T06:16:31;9.97;;;6.77;;
56653;SDS011;45096;52.302;4.634;2023-12-04T06:18:57;10.10;;;6.73;;
56653;SDS011;45096;52.302;4.634;2023-12-04T06:21:22;11.40;;;6.37;;
56653;SDS011;45096;52.302;4.634;2023-12-04T06:23:49;11.43;;;6.67;;
56653;SDS011;45096;52.302;4.634;2023-12-04T06:26:14;10.10;;;6.63;;
56653;SDS011;45096;52.302;4.634;2023-12-04T06:28:40;11.10;;;7.00;;
56653;SDS011;45096;52.302;4.634;2023-12-04T06:31:06;11.07;;;5.90;;
56653;SDS011;45096;52.302;4.634;2023-12-04T06:33:31;10.13;;;6.77;;
56653;SDS011;45096;52.302;4.634;2023-12-04T06:35:57;8.70;;;6.40;;
56653;SDS011;45096;52.302;4.634;2023-12-04T06:38:23;9.20;;;6.40;;
56653;SDS011;45096;52.302;4.634;2023-12-04T06:40:50;9.63;;;6.60;;
56653;SDS011;45096;52.302;4.634;2023-12-04T06:43:16;9.20;;;5.97;;
56653;SDS011;45096;52.302;4.634;2023-12-04T06:45:41;11.07;;;7.20;;
56653;SDS011;45096;52.302;4.634;2023-12-04T06:48:07;9.23;;;6.50;;
56653;SDS011;45096;52.302;4.634;2023-12-04T06:50:32;12.23;;;7.27;;
56653;SDS011;45096;52.302;4.634;2023-12-04T06:52:58;12.17;;;7.23;;
56653;SDS011;45096;52.302;4.634;2023-12-04T06:55:23;9.47;;;6.60;;
56653;SDS011;45096;52.302;4.634;2023-12-04T06:57:49;10.73;;;7.07;;
56653;SDS011;45096;52.302;4.634;2023-12-04T07:00:15;11.37;;;7.27;;
56653;SDS011;45096;52.302;4.634;2023-12-04T07:02:40;12.80;;;6.20;;
56653;SDS011;45096;52.302;4.634;2023-12-04T07:05:06;11.13;;;7.30;;
56653;SDS011;45096;52.302;4.634;2023-12-04T07:07:31;8.43;;;6.23;;
56653;SDS011;45096;52.302;4.634;2023-12-04T07:09:56;10.93;;;7.13;;
56653;SDS011;45096;52.302;4.634;2023-12-04T07:12:21;10.60;;;6.50;;
56653;SDS011;45096;52.302;4.634;2023-12-04T07:14:48;12.07;;;7.07;;
56653;SDS011;45096;52.302;4.634;2023-12-04T07:17:13;10.97;;;6.63;;
56653;SDS011;45096;52.302;4.634;2023-12-04T07:19:40;10.40;;;6.57;;
56653;SDS011;45096;52.302;4.634;2023-12-04T07:22:05;9.63;;;6.57;;
56653;SDS011;45096;52.302;4.634;2023-12-04T07:24:30;7.67;;;6.20;;
56653;SDS011;45096;52.302;4.634;2023-12-04T07:26:56;7.87;;;5.60;;
56653;SDS011;45096;52.302;4.634;2023-12-04T07:29:21;9.90;;;7.00;;
56653;SDS011;45096;52.302;4.634;2023-12-04T07:31:47;11.60;;;7.20;;
56653;SDS011;45096;52.302;4.634;2023-12-04T07:34:13;11.83;;;7.07;;
56653;SDS011;45096;52.302;4.634;2023-12-04T07:36:38;9.57;;;6.05;;
56653;SDS011;45096;52.302;4.634;2023-12-04T07:39:03;9.47;;;5.50;;
56653;SDS011;45096;52.302;4.634;2023-12-04T07:41:28;11.10;;;6.90;;
56653;SDS011;45096;52.302;4.634;2023-12-04T07:43:53;10.17;;;6.87;;
56653;SDS011;45096;52.302;4.634;2023-12-04T07:46:19;11.17;;;6.70;;
56653;SDS011;45096;52.302;4.634;2023-12-04T07:48:45;9.10;;;6.97;;
56653;SDS011;45096;52.302;4.634;2023-12-04T07:51:10;10.80;;;6.57;;
56653;SDS011;45096;52.302;4.634;2023-12-04T07:53:36;7.67;;;5.07;;
56653;SDS011;45096;52.302;4.634;2023-12-04T07:56:01;10.50;;;6.17;;
56653;SDS011;45096;52.302;4.634;2023-12-04T07:58:26;9.83;;;6.53;;
56653;SDS011;45096;52.302;4.634;2023-12-04T08:00:51;9.83;;;6.77;;
56653;SDS011;45096;52.302;4.634;2023-12-04T08:03:17;11.80;;;6.47;;
56653;SDS011;45096;52.302;4.634;2023-12-04T08:05:43;9.97;;;6.50;;
56653;SDS011;45096;52.302;4.634;2023-12-04T08:08:08;9.07;;;6.47;;
56653;SDS011;45096;52.302;4.634;2023-12-04T08:10:34;9.53;;;6.50;;
56653;SDS011;45096;52.302;4.634;2023-12-04T08:12:59;11.67;;;7.23;;
56653;SDS011;45096;52.302;4.634;2023-12-04T08:15:24;9.40;;;6.20;;
56653;SDS011;45096;52.302;4.634;2023-12-04T08:17:49;10.17;;;7.17;;
56653;SDS011;45096;52.302;4.634;2023-12-04T08:20:15;9.73;;;6.63;;
56653;SDS011;45096;52.302;4.634;2023-12-04T08:22:41;9.23;;;6.63;;
56653;SDS011;45096;52.302;4.634;2023-12-04T08:25:06;9.53;;;6.87;;
56653;SDS011;45096;52.302;4.634;2023-12-04T08:27:32;11.60;;;7.23;;
56653;SDS011;45096;52.302;4.634;2023-12-04T08:29:57;8.73;;;6.00;;
56653;SDS011;45096;52.302;4.634;2023-12-04T08:32:22;10.77;;;6.33;;
56653;SDS011;45096;52.302;4.634;2023-12-04T08:34:47;9.03;;;6.53;;
56653;SDS011;45096;52.302;4.634;2023-12-04T08:37:12;8.67;;;6.23;;
56653;SDS011;45096;52.302;4.634;2023-12-04T08:39:39;9.53;;;6.53;;
56653;SDS011;45096;52.302;4.634;2023-12-04T08:42:04;9.00;;;6.03;;
56653;SDS011;45096;52.302;4.634;2023-12-04T08:44:29;7.93;;;6.03;;
56653;SDS011;45096;52.302;4.634;2023-12-04T08:46:55;8.90;;;6.20;;
56653;SDS011;45096;52.302;4.634;2023-12-04T08:49:20;8.17;;;6.43;;
56653;SDS011;45096;52.302;4.634;2023-12-04T08:51:45;9.90;;;7.23;;
56653;SDS011;45096;52.302;4.634;2023-12-04T08:54:10;9.83;;;6.80;;
56653;SDS011;45096;52.302;4.634;2023-12-04T08:56:37;8.77;;;6.33;;
56653;SDS011;45096;52.302;4.634;2023-12-04T08:59:02;9.37;;;5.70;;
56653;SDS011;45096;52.302;4.634;2023-12-04T09:01:27;6.90;;;6.10;;
56653;SDS011;45096;52.302;4.634;2023-12-04T09:03:52;9.03;;;6.10;;
56653;SDS011;45096;52.302;4.634;2023-12-04T09:06:18;7.40;;;6.00;;
56653;SDS011;45096;52.302;4.634;2023-12-04T09:08:43;9.47;;;6.93;;
56653;SDS011;45096;52.302;4.634;2023-12-04T09:11:08;9.30;;;5.77;;
56653;SDS011;45096;52.302;4.634;2023-12-04T09:13:35;7.97;;;5.80;;
56653;SDS011;45096;52.302;4.634;2023-12-04T09:16:00;10.53;;;6.60;;
56653;SDS011;45096;52.302;4.634;2023-12-04T09:18:25;8.93;;;6.53;;
56653;SDS011;45096;52.302;4.634;2023-12-04T09:20:50;8.63;;;6.17;;
56653;SDS011;45096;52.302;4.634;2023-12-04T09:23:15;8.00;;;5.47;;
56653;SDS011;45096;52.302;4.634;2023-12-04T09:25:41;9.73;;;6.43;;
56653;SDS011;45096;52.302;4.634;2023-12-04T09:28:06;6.97;;;5.30;;
56653;SDS011;45096;52.302;4.634;2023-12-04T09:30:33;10.30;;;5.90;;
56653;SDS011;45096;52.302;4.634;2023-12-04T09:32:58;8.53;;;5.90;;
56653;SDS011;45096;52.302;4.634;2023-12-04T09:35:23;7.57;;;6.20;;
56653;SDS011;45096;52.302;4.634;2023-12-04T09:37:49;8.27;;;5.87;;
56653;SDS011;45096;52.302;4.634;2023-12-04T09:40:14;8.77;;;6.07;;
56653;SDS011;45096;52.302;4.634;2023-12-04T09:42:39;6.47;;;5.37;;
56653;SDS011;45096;52.302;4.634;2023-12-04T09:45:05;7.67;;;6.13;;
56653;SDS011;45096;52.302;4.634;2023-12-04T09:47:32;6.50;;;5.27;;
56653;SDS011;45096;52.302;4.634;2023-12-04T09:49:57;8.30;;;6.10;;
56653;SDS011;45096;52.302;4.634;2023-12-04T09:52:23;7.37;;;5.90;;
56653;SDS011;45096;52.302;4.634;2023-12-04T09:54:50;8.03;;;5.23;;
56653;SDS011;45096;52.302;4.634;2023-12-04T09:57:15;8.10;;;6.10;;
56653;SDS011;45096;52.302;4.634;2023-12-04T09:59:41;8.57;;;5.97;;
56653;SDS011;45096;52.302;4.634;2023-12-04T10:02:08;7.50;;;5.67;;
56653;SDS011;45096;52.302;4.634;2023-12-04T10:04:34;6.00;;;5.10;;
56653;SDS011;45096;52.302;4.634;2023-12-04T10:06:59;8.80;;;5.87;;
56653;SDS011;45096;52.302;4.634;2023-12-04T10:09:25;8.97;;;5.57;;
56653;SDS011;45096;52.302;4.634;2023-12-04T10:11:50;8.97;;;6.00;;
56653;SDS011;45096;52.302;4.634;2023-12-04T10:14:16;7.80;;;5.20;;
56653;SDS011;45096;52.302;4.634;2023-12-04T10:16:41;9.37;;;6.30;;
56653;SDS011;45096;52.302;4.634;2023-12-04T10:19:16;6.40;;;5.33;;
56653;SDS011;45096;52.302;4.634;2023-12-04T10:21:43;6.93;;;6.10;;
56653;SDS011;45096;52.302;4.634;2023-12-04T10:24:08;6.97;;;5.40;;
56653;SDS011;45096;52.302;4.634;2023-12-04T10:26:34;8.33;;;6.07;;
56653;SDS011;45096;52.302;4.634;2023-12-04T10:28:59;8.10;;;5.70;;
56653;SDS011;45096;52.302;4.634;2023-12-04T10:31:24;7.10;;;5.53;;
56653;SDS011;45096;52.302;4.634;2023-12-04T10:33:50;7.47;;;5.70;;
56653;SDS011;45096;52.302;4.634;2023-12-04T10:36:15;7.33;;;5.50;;
56653;SDS011;45096;52.302;4.634;2023-12-04T10:38:42;7.43;;;6.17;;
56653;SDS011;45096;52.302;4.634;2023-12-04T10:41:11;6.20;;;4.73;;
56653;SDS011;45096;52.302;4.634;2023-12-04T10:43:36;7.10;;;5.47;;
56653;SDS011;45096;52.302;4.634;2023-12-04T10:46:11;6.57;;;4.90;;
56653;SDS011;45096;52.302;4.634;2023-12-04T10:48:36;6.67;;;5.30;;
56653;SDS011;45096;52.302;4.634;2023-12-04T10:51:02;8.40;;;5.67;;
56653;SDS011;45096;52.302;4.634;2023-12-04T10:53:27;7.03;;;5.43;;
56653;SDS011;45096;52.302;4.634;2023-12-04T10:55:54;5.63;;;4.83;;
56653;SDS011;45096;52.302;4.634;2023-12-04T10:58:21;8.30;;;5.97;;
56653;SDS011;45096;52.302;4.634;2023-12-04T11:00:49;6.90;;;5.80;;
56653;SDS011;45096;52.302;4.634;2023-12-04T11:03:17;6.03;;;5.00;;
56653;SDS011;45096;52.302;4.634;2023-12-04T11:05:43;6.90;;;5.60;;
56653;SDS011;45096;52.302;4.634;2023-12-04T11:08:11;6.80;;;5.03;;
56653;SDS011;45096;52.302;4.634;2023-12-04T11:10:41;7.47;;;5.07;;
56653;SDS011;45096;52.302;4.634;2023-12-04T11:13:10;6.53;;;5.57;;
56653;SDS011;45096;52.302;4.634;2023-12-04T11:15:39;8.35;;;5.65;;
56653;SDS011;45096;52.302;4.634;2023-12-04T11:18:04;7.67;;;5.27;;
56653;SDS011;45096;52.302;4.634;2023-12-04T11:20:31;7.53;;;5.40;;
56653;SDS011;45096;52.302;4.634;2023-12-04T11:22:58;7.03;;;5.27;;
56653;SDS011;45096;52.302;4.634;2023-12-04T11:25:24;6.63;;;4.83;;
56653;SDS011;45096;52.302;4.634;2023-12-04T11:27:49;7.60;;;5.27;;
56653;SDS011;45096;52.302;4.634;2023-12-04T11:30:16;5.57;;;4.80;;
56653;SDS011;45096;52.302;4.634;2023-12-04T11:32:45;5.80;;;5.20;;
56653;SDS011;45096;52.302;4.634;2023-12-04T11:35:12;7.83;;;5.37;;
56653;SDS011;45096;52.302;4.634;2023-12-04T11:37:37;4.93;;;4.53;;
56653;SDS011;45096;52.302;4.634;2023-12-04T11:40:02;7.67;;;5.80;;
56653;SDS011;45096;52.302;4.634;2023-12-04T11:42:30;5.47;;;4.93;;
56653;SDS011;45096;52.302;4.634;2023-12-04T11:44:55;6.60;;;4.97;;
56653;SDS011;45096;52.302;4.634;2023-12-04T11:47:23;7.03;;;4.97;;
56653;SDS011;45096;52.302;4.634;2023-12-04T11:49:48;7.17;;;6.03;;
56653;SDS011;45096;52.302;4.634;2023-12-04T11:52:13;6.97;;;5.50;;
56653;SDS011;45096;52.302;4.634;2023-12-04T11:54:57;9.07;;;5.67;;
56653;SDS011;45096;52.302;4.634;2023-12-04T11:57:23;6.17;;;5.20;;
56653;SDS011;45096;52.302;4.634;2023-12-04T11:59:48;6.40;;;5.37;;
56653;SDS011;45096;52.302;4.634;2023-12-04T12:02:13;7.23;;;5.67;;
56653;SDS011;45096;52.302;4.634;2023-12-04T12:04:41;9.03;;;5.90;;
56653;SDS011;45096;52.302;4.634;2023-12-04T12:07:06;6.07;;;5.47;;
56653;SDS011;45096;52.302;4.634;2023-12-04T12:09:32;7.03;;;5.73;;
56653;SDS011;45096;52.302;4.634;2023-12-04T12:11:57;7.73;;;5.20;;
56653;SDS011;45096;52.302;4.634;2023-12-04T12:14:24;6.10;;;5.30;;
56653;SDS011;45096;52.302;4.634;2023-12-04T12:16:49;7.13;;;5.63;;
56653;SDS011;45096;52.302;4.634;2023-12-04T12:19:14;6.70;;;5.33;;
56653;SDS011;45096;52.302;4.634;2023-12-04T12:21:41;8.00;;;5.25;;
56653;SDS011;45096;52.302;4.634;2023-12-04T12:24:06;6.43;;;5.47;;
56653;SDS011;45096;52.302;4.634;2023-12-04T12:26:31;9.43;;;5.77;;
56653;SDS011;45096;52.302;4.634;2023-12-04T12:28:57;5.83;;;5.23;;
56653;SDS011;45096;52.302;4.634;2023-12-04T12:31:22;7.40;;;5.90;;
56653;SDS011;45096;52.302;4.634;2023-12-04T12:33:47;7.10;;;5.83;;
56653;SDS011;45096;52.302;4.634;2023-12-04T12:36:12;5.77;;;5.10;;
56653;SDS011;45096;52.302;4.634;2023-12-04T12:38:39;6.77;;;5.50;;
56653;SDS011;45096;52.302;4.634;2023-12-04T12:41:05;7.97;;;5.80;;
56653;SDS011;45096;52.302;4.634;2023-12-04T12:43:31;6.80;;;5.37;;
56653;SDS011;45096;52.302;4.634;2023-12-04T12:45:56;7.53;;;5.80;;
56653;SDS011;45096;52.302;4.634;2023-12-04T12:48:21;9.83;;;6.57;;
56653;SDS011;45096;52.302;4.634;2023-12-04T12:50:46;9.90;;;6.07;;
56653;SDS011;45096;52.302;4.634;2023-12-04T12:53:12;7.07;;;5.80;;
56653;SDS011;45096;52.302;4.634;2023-12-04T12:55:39;7.40;;;6.43;;
56653;SDS011;45096;52.302;4.634;2023-12-04T12:58:05;8.47;;;6.20;;
56653;SDS011;45096;52.302;4.634;2023-12-04T13:00:30;6.90;;;6.20;;
56653;SDS011;45096;52.302;4.634;2023-12-04T13:02:55;7.83;;;5.77;;
56653;SDS011;45096;52.302;4.634;2023-12-04T13:05:21;7.73;;;6.37;;
56653;SDS011;45096;52.302;4.634;2023-12-04T13:07:46;6.93;;;6.17;;
56653;SDS011;45096;52.302;4.634;2023-12-04T13:10:11;7.65;;;6.05;;
56653;SDS011;45096;52.302;4.634;2023-12-04T13:12:38;10.33;;;6.40;;
56653;SDS011;45096;52.302;4.634;2023-12-04T13:15:03;9.63;;;7.03;;
56653;SDS011;45096;52.302;4.634;2023-12-04T13:17:28;10.87;;;7.13;;
56653;SDS011;45096;52.302;4.634;2023-12-04T13:19:54;7.50;;;5.93;;
56653;SDS011;45096;52.302;4.634;2023-12-04T13:22:19;10.23;;;6.80;;
56653;SDS011;45096;52.302;4.634;2023-12-04T13:24:44;7.45;;;5.88;;
56653;SDS011;45096;52.302;4.634;2023-12-04T13:27:09;9.83;;;6.40;;
56653;SDS011;45096;52.302;4.634;2023-12-04T13:29:36;10.67;;;6.50;;
56653;SDS011;45096;52.302;4.634;2023-12-04T13:32:01;10.90;;;6.73;;
56653;SDS011;45096;52.302;4.634;2023-12-04T13:34:26;11.27;;;7.50;;
56653;SDS011;45096;52.302;4.634;2023-12-04T13:36:52;10.40;;;7.07;;
56653;SDS011;45096;52.302;4.634;2023-12-04T13:39:17;11.05;;;6.88;;
56653;SDS011;45096;52.302;4.634;2023-12-04T13:41:43;8.52;;;6.93;;
56653;SDS011;45096;52.302;4.634;2023-12-04T13:44:09;8.45;;;6.70;;
56653;SDS011;45096;52.302;4.634;2023-12-04T13:46:35;9.27;;;6.87;;
56653;SDS011;45096;52.302;4.634;2023-12-04T13:49:01;10.13;;;6.93;;
56653;SDS011;45096;52.302;4.634;2023-12-04T13:51:26;10.83;;;6.73;;
56653;SDS011;45096;52.302;4.634;2023-12-04T13:53:51;12.03;;;7.00;;
56653;SDS011;45096;52.302;4.634;2023-12-04T13:56:16;8.90;;;6.30;;
56653;SDS011;45096;52.302;4.634;2023-12-04T13:58:41;8.67;;;7.27;;
56653;SDS011;45096;52.302;4.634;2023-12-04T14:01:07;9.40;;;7.18;;
56653;SDS011;45096;52.302;4.634;2023-12-04T14:03:33;8.60;;;6.47;;
56653;SDS011;45096;52.302;4.634;2023-12-04T14:05:58;11.60;;;7.53;;
56653;SDS011;45096;52.302;4.634;2023-12-04T14:08:24;9.47;;;7.30;;
56653;SDS011;45096;52.302;4.634;2023-12-04T14:10:49;9.80;;;7.23;;
56653;SDS011;45096;52.302;4.634;2023-12-04T14:13:14;10.73;;;7.30;;
56653;SDS011;45096;52.302;4.634;2023-12-04T14:15:39;12.30;;;7.73;;
56653;SDS011;45096;52.302;4.634;2023-12-04T14:18:04;10.20;;;7.00;;
56653;SDS011;45096;52.302;4.634;2023-12-04T14:20:31;10.97;;;7.33;;
56653;SDS011;45096;52.302;4.634;2023-12-04T14:22:56;8.17;;;7.17;;
56653;SDS011;45096;52.302;4.634;2023-12-04T14:25:21;9.77;;;6.63;;
56653;SDS011;45096;52.302;4.634;2023-12-04T14:27:47;7.95;;;6.82;;
56653;SDS011;45096;52.302;4.634;2023-12-04T14:30:12;9.63;;;6.47;;